OOCL California — VRWC8 — position and weather

sailwx.info

Track history (hours):
 
Tides and Currents Weather Stations Pressure Air Temp Water Temp Dewpoint Dewpoint Depression Visibility Wind Speed Wind Dir Waves Ship Positions

OOCL California

Last reported at 2017-Feb-23 08:24 UTC. Time now 2017-Feb-24 21:38 UTC.
Position N 23°50' E 118°20'.

Length 276 m; beam 40 m; draft 14 m.

Type: Ship. MMSI: 477704000.

Date/timePositionNaut miles runAvg speedWind from/ knotsBaromVisibWave heightAir tempDewpointWater temp
2017-Feb-23 08:24N 23°50' E 118°20'  
2017-Feb-21 01:30N 31°20' E 121°41'1 1.5
2017-Feb-21 00:33N 31°20' E 121°39'0 0.0
2017-Feb-20 23:05N 31°20' E 121°39'0 0.0
2017-Feb-20 22:29N 31°20' E 121°39'0 0.0
2017-Feb-20 21:29N 31°20' E 121°39'0 0.0
2017-Feb-20 20:17N 31°20' E 121°39'0 0.1
2017-Feb-20 19:32N 31°20' E 121°39'0 0.0
2017-Feb-20 18:32N 31°20' E 121°39'0 0.0
2017-Feb-20 17:32N 31°20' E 121°39'0 0.0
2017-Feb-20 16:32N 31°20' E 121°39'0 0.0
2017-Feb-20 15:32N 31°20' E 121°39'0 0.1
2017-Feb-20 14:32N 31°20' E 121°39'0 0.1
2017-Feb-20 13:32N 31°20' E 121°39'0 0.1
2017-Feb-20 12:32N 31°20' E 121°39'0 0.1
2017-Feb-20 11:32N 31°20' E 121°39'0 0.0
2017-Feb-20 10:32N 31°20' E 121°39'0 0.0
2017-Feb-20 09:32N 31°20' E 121°39'0 0.0
2017-Feb-20 08:29N 31°20' E 121°39'0 0.1
2017-Feb-20 07:32N 31°20' E 121°39'0 0.0
2017-Feb-20 06:32N 31°20' E 121°39'0 0.1
2017-Feb-20 05:32N 31°20' E 121°39'0 0.0
2017-Feb-20 04:32N 31°20' E 121°39'0 0.1
2017-Feb-20 03:32N 31°20' E 121°39'0 0.1
2017-Feb-20 02:32N 31°20' E 121°39'0 0.0
2017-Feb-20 01:32N 31°20' E 121°39'0 0.1
2017-Feb-20 00:32N 31°20' E 121°39'0 0.0
2017-Feb-19 23:33N 31°20' E 121°39'1 0.7
2017-Feb-19 22:33N 31°21' E 121°40'6 5.5
2017-Feb-19 21:33N 31°18' E 121°46'1010.2
2017-Feb-19 20:33N 31°15' E 121°57'1010.2
2017-Feb-19 19:33N 31°12' E 122°08'1312.6
2017-Feb-19 18:33N 31°06' E 122°21'8 8.4
2017-Feb-19 17:33N 31°07' E 122°31'6 5.3
2017-Feb-19 16:27N 31°09' E 122°38'0 0.0
2017-Feb-19 10:06N 31°09' E 122°37'0 0.0
2017-Feb-18 23:30N 31°09' E 122°37'0 0.0
2017-Feb-18 20:33N 31°09' E 122°37'1 0.4
2017-Feb-18 17:33N 31°08' E 122°38'9 8.9
2017-Feb-18 16:33N 31°06' E 122°48'9 9.2
2017-Feb-18 15:33N 31°03' E 122°58'10 9.8
2017-Feb-18 14:33N 30°56' E 123°05'11 9.2
2017-Feb-18 13:24N 30°47' E 123°12'28 8.8
2017-Feb-18 10:16N 30°19' E 123°09'  
Track history (hours):
 
Tides and Currents Weather Stations Pressure Air Temp Water Temp Dewpoint Dewpoint Depression Visibility Wind Speed Wind Dir Waves Ship Positions

OOCL California

Last reported at 2017-Feb-23 08:24 UTC. Time now 2017-Feb-24 21:38 UTC.
Position N 23°50' E 118°20'.

Length 276 m; beam 40 m; draft 14 m.

Type: Ship. MMSI: 477704000.

Date/timePositionNaut miles runAvg speedWind from/ knotsBaromVisibWave heightAir tempDewpointWater temp
2017-Feb-23 08:24N 23°50' E 118°20'  
2017-Feb-21 01:30N 31°20' E 121°41'1 1.5
2017-Feb-21 00:33N 31°20' E 121°39'0 0.0
2017-Feb-20 23:05N 31°20' E 121°39'0 0.0
2017-Feb-20 22:29N 31°20' E 121°39'0 0.0
2017-Feb-20 21:29N 31°20' E 121°39'0 0.0
2017-Feb-20 20:17N 31°20' E 121°39'0 0.1
2017-Feb-20 19:32N 31°20' E 121°39'0 0.0
2017-Feb-20 18:32N 31°20' E 121°39'0 0.0
2017-Feb-20 17:32N 31°20' E 121°39'0 0.0
2017-Feb-20 16:32N 31°20' E 121°39'0 0.0
2017-Feb-20 15:32N 31°20' E 121°39'0 0.1
2017-Feb-20 14:32N 31°20' E 121°39'0 0.1
2017-Feb-20 13:32N 31°20' E 121°39'0 0.1
2017-Feb-20 12:32N 31°20' E 121°39'0 0.1
2017-Feb-20 11:32N 31°20' E 121°39'0 0.0
2017-Feb-20 10:32N 31°20' E 121°39'0 0.0
2017-Feb-20 09:32N 31°20' E 121°39'0 0.0
2017-Feb-20 08:29N 31°20' E 121°39'0 0.1
2017-Feb-20 07:32N 31°20' E 121°39'0 0.0
2017-Feb-20 06:32N 31°20' E 121°39'0 0.1
2017-Feb-20 05:32N 31°20' E 121°39'0 0.0
2017-Feb-20 04:32N 31°20' E 121°39'0 0.1
2017-Feb-20 03:32N 31°20' E 121°39'0 0.1
2017-Feb-20 02:32N 31°20' E 121°39'0 0.0
2017-Feb-20 01:32N 31°20' E 121°39'0 0.1
2017-Feb-20 00:32N 31°20' E 121°39'0 0.0
2017-Feb-19 23:33N 31°20' E 121°39'1 0.7
2017-Feb-19 22:33N 31°21' E 121°40'6 5.5
2017-Feb-19 21:33N 31°18' E 121°46'1010.2
2017-Feb-19 20:33N 31°15' E 121°57'1010.2
2017-Feb-19 19:33N 31°12' E 122°08'1312.6
2017-Feb-19 18:33N 31°06' E 122°21'8 8.4
2017-Feb-19 17:33N 31°07' E 122°31'6 5.3
2017-Feb-19 16:27N 31°09' E 122°38'0 0.0
2017-Feb-19 10:06N 31°09' E 122°37'0 0.0
2017-Feb-18 23:30N 31°09' E 122°37'0 0.0
2017-Feb-18 20:33N 31°09' E 122°37'1 0.4
2017-Feb-18 17:33N 31°08' E 122°38'9 8.9
2017-Feb-18 16:33N 31°06' E 122°48'9 9.2
2017-Feb-18 15:33N 31°03' E 122°58'10 9.8
2017-Feb-18 14:33N 30°56' E 123°05'11 9.2
2017-Feb-18 13:24N 30°47' E 123°12'28 8.8
2017-Feb-18 10:16N 30°19' E 123°09'  

Dump ship's entire track history